Time;durP1;ratioP1;P1;durP2;ratioP2;P2;SDS_P1;SDS_P2;PMS_P1;PMS_P2;Temp;Humidity;BMP_temperature;BMP_pressure;BME280_temperature;BME280_humidity;BME280_pressure;Samples;Min_cycle;Max_cycle;Signal;HPM_P1;HPM_P2
2022/01/12 00:01:12;;;;;;;218.30;57.72;;;5.00;99.90;;;;;;5071911;28;20040;-60
2022/01/12 00:03:38;;;;;;;224.93;59.17;;;;;;;;;;5071854;28;20068;-61
2022/01/12 00:06:05;;;;;;;221.00;61.97;;;4.80;99.90;;;;;;5053847;28;20040;-59
2022/01/12 00:08:32;;;;;;;201.57;53.85;;;4.80;99.90;;;;;;5053605;28;20055;-59
2022/01/12 00:10:59;;;;;;;204.20;57.08;;;;;;;;;;5071824;28;20407;-60
2022/01/12 00:13:24;;;;;;;179.00;53.60;;;4.80;99.90;;;;;;5054085;28;20041;-59
2022/01/12 00:15:51;;;;;;;211.40;54.72;;;4.80;99.90;;;;;;5071727;28;20036;-60
2022/01/12 00:18:17;;;;;;;247.23;59.40;;;4.80;99.90;;;;;;5071345;28;20090;-58
2022/01/12 00:20:43;;;;;;;221.75;57.92;;;;;;;;;;5071431;28;20036;-58
2022/01/12 00:23:10;;;;;;;257.30;65.75;;;;;;;;;;5053957;28;20114;-59
2022/01/12 00:25:57;;;;;;;216.82;58.72;;;;;;;;;;5071070;28;20073;-59
2022/01/12 00:33:52;;;;;;;266.98;63.17;;;4.90;99.90;;;;;;5071451;28;19927;-55
2022/01/12 00:36:19;;;;;;;206.20;57.78;;;4.80;99.90;;;;;;5070691;28;20047;-59
2022/01/12 00:38:44;;;;;;;290.55;67.32;;;4.80;99.90;;;;;;5071346;28;20078;-60
2022/01/12 00:41:11;;;;;;;226.95;60.45;;;;;;;;;;5071531;28;20040;-61
2022/01/12 00:43:41;;;;;;;301.50;66.53;;;4.80;99.90;;;;;;5071130;28;20034;-58
2022/01/12 00:46:07;;;;;;;228.55;58.78;;;4.90;99.90;;;;;;5071090;28;20080;-60
2022/01/12 00:48:36;;;;;;;237.23;57.85;;;;;;;;;;5071416;28;20079;-60
2022/01/12 00:51:03;;;;;;;244.65;59.92;;;4.80;99.90;;;;;;5053000;28;20041;-60
2022/01/12 00:53:29;;;;;;;234.77;60.70;;;4.70;99.90;;;;;;5071126;28;20040;-58
2022/01/12 00:55:55;;;;;;;265.67;61.75;;;5.00;99.90;;;;;;5073952;28;20043;-59
2022/01/12 00:58:20;;;;;;;267.83;60.00;;;4.70;99.90;;;;;;5077725;28;20040;-58
2022/01/12 01:00:46;;;;;;;217.70;55.20;;;4.80;99.90;;;;;;5077991;28;20089;-60
2022/01/12 01:03:12;;;;;;;247.25;58.05;;;4.80;99.90;;;;;;5077513;28;20041;-60
2022/01/12 01:05:38;;;;;;;254.77;60.75;;;4.80;99.90;;;;;;5077790;28;20036;-59
2022/01/12 01:08:04;;;;;;;287.40;65.70;;;4.90;99.90;;;;;;5077564;28;20064;-58
2022/01/12 01:12:55;;;;;;;198.25;50.65;;;5.00;99.90;;;;;;5077212;28;20127;-60
2022/01/12 01:15:38;;;;;;;204.25;54.25;;;5.00;99.90;;;;;;5077764;28;20036;-59
2022/01/12 01:26:17;;;;;;;191.00;51.22;;;5.10;99.90;;;;;;5077744;28;20477;-60
2022/01/12 01:28:43;;;;;;;164.98;48.67;;;5.00;99.90;;;;;;5059542;28;20128;-59
2022/01/12 01:31:09;;;;;;;183.18;49.03;;;;;;;;;;5077570;28;20037;-58
2022/01/12 01:33:34;;;;;;;162.73;48.03;;;5.00;99.90;;;;;;5077489;28;20392;-59
2022/01/12 01:36:00;;;;;;;163.65;44.85;;;5.20;99.90;;;;;;5076865;28;20036;-59
2022/01/12 01:38:26;;;;;;;140.65;40.38;;;5.10;99.90;;;;;;5077764;28;20098;-60
2022/01/12 01:40:51;;;;;;;115.47;37.33;;;5.20;99.90;;;;;;5077555;28;20414;-59
2022/01/12 01:43:40;;;;;;;112.28;35.78;;;5.20;99.90;;;;;;5077767;28;20041;-60
2022/01/12 01:54:19;;;;;;;111.53;32.75;;;5.10;99.90;;;;;;5077003;28;20123;-61
2022/01/12 01:56:45;;;;;;;73.85;24.13;;;5.20;99.90;;;;;;5077273;28;20560;-60
2022/01/12 01:59:10;;;;;;;81.93;24.50;;;5.50;99.90;;;;;;5077408;28;20037;-59
2022/01/12 02:01:36;;;;;;;66.60;23.77;;;5.10;99.90;;;;;;5077318;28;20037;-58
2022/01/12 02:04:03;;;;;;;82.57;24.90;;;5.00;99.90;;;;;;5077449;28;20447;-59
2022/01/12 02:06:30;;;;;;;86.10;25.98;;;;;;;;;;5076754;28;20060;-59
2022/01/12 02:08:56;;;;;;;74.90;23.88;;;;;;;;;;5055192;28;20123;-59
2022/01/12 02:11:29;;;;;;;64.00;21.40;;;;;;;;;;5073610;28;20040;-59
2022/01/12 02:13:55;;;;;;;89.13;25.63;;;4.80;99.90;;;;;;5056326;28;20380;-56
2022/01/12 02:16:29;;;;;;;76.90;21.92;;;;;;;;;;5073607;28;20032;-58
2022/01/12 02:40:28;;;;;;;111.15;29.02;;;4.30;99.90;;;;;;5085925;28;20086;-58
2022/01/12 02:51:08;;;;;;;94.15;26.27;;;4.00;99.90;;;;;;5073043;28;20036;-58
2022/01/12 02:53:41;;;;;;;84.25;24.90;;;3.90;99.90;;;;;;5072999;28;20037;-58
2022/01/12 02:56:17;;;;;;;118.32;30.42;;;3.60;99.90;;;;;;5073018;28;20478;-57
2022/01/12 02:58:45;;;;;;;87.10;24.92;;;3.60;99.90;;;;;;5073382;28;20043;-56
2022/01/12 03:03:43;;;;;;;87.88;24.98;;;3.70;99.90;;;;;;5073274;28;20045;-58
2022/01/12 03:06:10;;;;;;;78.57;23.17;;;3.70;99.90;;;;;;5072667;28;20032;-59
2022/01/12 03:08:38;;;;;;;79.38;24.50;;;3.50;99.90;;;;;;5073220;28;20037;-59
2022/01/12 03:11:09;;;;;;;77.75;24.45;;;3.30;99.90;;;;;;5067621;28;20038;-59
2022/01/12 03:13:36;;;;;;;94.57;25.67;;;;;;;;;;5091092;28;20079;-59
2022/01/12 03:16:11;;;;;;;115.65;28.50;;;3.50;99.90;;;;;;5092328;28;20504;-59
2022/01/12 03:18:37;;;;;;;88.07;25.63;;;3.40;99.90;;;;;;5092646;28;20551;-59
2022/01/12 03:21:03;;;;;;;106.07;27.98;;;3.50;99.90;;;;;;5093060;28;20028;-59
2022/01/12 03:23:28;;;;;;;89.72;27.05;;;3.30;99.90;;;;;;5092835;28;20040;-59
2022/01/12 03:25:54;;;;;;;93.55;25.55;;;;;;;;;;5092305;28;20043;-58
2022/01/12 03:28:20;;;;;;;85.82;25.13;;;3.40;99.90;;;;;;5093168;28;20062;-58
2022/01/12 03:31:21;;;;;;;85.93;24.30;;;3.40;99.90;;;;;;5092735;28;20139;-59
2022/01/12 03:33:51;;;;;;;111.25;29.83;;;3.40;99.90;;;;;;5089592;28;20048;-59
2022/01/12 03:39:11;;;;;;;94.38;27.10;;;3.90;99.90;;;;;;5093083;28;20050;-59
2022/01/12 03:41:38;;;;;;;88.55;26.17;;;3.50;99.90;;;;;;5092425;28;20032;-58
2022/01/12 03:44:06;;;;;;;141.18;33.60;;;;;;;;;;5092231;28;20089;-59
2022/01/12 03:47:01;;;;;;;91.45;27.00;;;;;;;;;;5091718;28;20441;-59
2022/01/12 03:49:27;;;;;;;61.65;20.67;;;3.50;99.90;;;;;;5075067;28;20477;-57
2022/01/12 03:51:53;;;;;;;67.80;20.08;;;3.40;99.90;;;;;;5092218;28;20038;-57
2022/01/12 03:54:20;;;;;;;58.28;19.33;;;3.20;99.90;;;;;;5091657;28;20163;-58
2022/01/12 03:56:46;;;;;;;59.83;19.67;;;;;;;;;;5092336;28;20039;-58
2022/01/12 03:59:12;;;;;;;56.00;19.05;;;;;;;;;;5091959;28;20098;-58
2022/01/12 04:01:37;;;;;;;55.83;18.60;;;3.40;99.90;;;;;;5074180;28;20529;-58
2022/01/12 04:04:08;;;;;;;45.40;18.02;;;;;;;;;;5092026;28;20048;-58
2022/01/12 04:09:19;;;;;;;37.60;14.20;;;3.40;99.90;;;;;;5091753;28;20040;-59
2022/01/12 04:11:45;;;;;;;43.83;14.55;;;3.40;99.90;;;;;;5091848;28;20036;-58
2022/01/12 04:14:12;;;;;;;33.97;13.80;;;;;;;;;;5085500;28;20036;-59
2022/01/12 04:19:05;;;;;;;50.67;15.05;;;;;;;;;;5140974;22;20058;-58
2022/01/12 04:21:34;;;;;;;46.50;14.85;;;;;;;;;;5091969;28;20072;-59
2022/01/12 04:23:59;;;;;;;36.05;11.75;;;3.60;99.90;;;;;;5080342;28;20403;-59
2022/01/12 04:26:27;;;;;;;45.03;15.23;;;;;;;;;;5087742;28;20089;-58
2022/01/12 04:28:53;;;;;;;60.50;17.88;;;3.80;99.90;;;;;;5083214;28;20104;-59
2022/01/12 04:31:18;;;;;;;48.58;17.05;;;3.30;99.90;;;;;;5091098;28;20486;-59
2022/01/12 04:33:46;;;;;;;50.15;16.67;;;3.40;99.90;;;;;;5091814;28;20495;-58
2022/01/12 04:36:12;;;;;;;46.00;16.48;;;3.20;99.90;;;;;;5073713;28;20123;-59
2022/01/12 04:38:39;;;;;;;47.80;16.67;;;;;;;;;;5092108;28;20074;-59
2022/01/12 04:41:07;;;;;;;41.13;17.00;;;3.40;99.90;;;;;;5091716;28;20036;-58
2022/01/12 04:43:33;;;;;;;58.55;21.50;;;;;;;;;;5091976;28;20055;-58
2022/01/12 04:51:02;;;;;;;61.42;20.63;;;;;;;;;;5073763;28;20071;-58
2022/01/12 04:53:29;;;;;;;45.97;18.27;;;2.40;99.90;;;;;;5091049;28;20039;-57
2022/01/12 04:55:55;;;;;;;60.63;18.90;;;;;;;;;;5091481;28;20040;-59
2022/01/12 04:58:21;;;;;;;45.28;17.08;;;2.90;99.90;;;;;;5091601;28;20036;-59
2022/01/12 05:00:48;;;;;;;45.55;15.73;;;;;;;;;;5091980;28;20401;-59
2022/01/12 05:13:54;;;;;;;38.80;14.00;;;;;;;;;;5091426;28;20479;-59
2022/01/12 05:16:21;;;;;;;88.30;22.50;;;;;;;;;;5091060;28;20039;-59
2022/01/12 05:18:48;;;;;;;39.22;15.23;;;;;;;;;;5091215;28;20044;-58
2022/01/12 05:21:15;;;;;;;50.50;16.80;;;2.80;99.90;;;;;;5091442;28;20100;-58
2022/01/12 05:23:40;;;;;;;37.55;14.75;;;2.70;99.90;;;;;;5091499;28;20554;-59
2022/01/12 05:26:07;;;;;;;54.88;19.38;;;;;;;;;;5091046;28;20127;-58
2022/01/12 05:28:34;;;;;;;56.20;19.77;;;;;;;;;;5091613;28;20040;-58
2022/01/12 05:31:01;;;;;;;55.75;19.48;;;2.80;99.90;;;;;;5090947;28;20047;-58
2022/01/12 05:33:27;;;;;;;64.25;18.50;;;2.90;99.90;;;;;;5073234;28;20072;-59
2022/01/12 05:35:55;;;;;;;48.75;17.08;;;2.90;99.90;;;;;;5091046;28;20454;-58
2022/01/12 05:38:21;;;;;;;39.67;15.80;;;;;;;;;;5091306;28;20036;-58
2022/01/12 05:40:50;;;;;;;48.92;17.95;;;3.10;99.90;;;;;;5073548;28;20085;-57
2022/01/12 05:43:21;;;;;;;48.13;16.88;;;;;;;;;;5092968;28;20036;-58
2022/01/12 05:45:47;;;;;;;40.10;15.43;;;;;;;;;;5095009;28;20040;-59
2022/01/12 05:50:40;;;;;;;44.75;16.08;;;;;;;;;;5095035;28;20498;-59
2022/01/12 05:53:06;;;;;;;37.00;14.57;;;2.90;99.90;;;;;;5094692;28;20539;-59
2022/01/12 05:55:32;;;;;;;42.58;15.05;;;;;;;;;;5094309;28;20048;-59
2022/01/12 05:57:58;;;;;;;39.28;13.88;;;;;;;;;;5094735;28;20035;-59
2022/01/12 06:00:26;;;;;;;43.38;14.55;;;2.80;99.90;;;;;;5094263;28;20067;-59
2022/01/12 06:02:52;;;;;;;47.92;15.48;;;;;;;;;;5074053;28;20578;-59
2022/01/12 06:05:20;;;;;;;44.75;14.57;;;2.50;99.90;;;;;;5074254;28;20127;-59
2022/01/12 06:07:47;;;;;;;45.28;15.90;;;2.70;99.90;;;;;;5074044;28;20044;-59
2022/01/12 06:10:13;;;;;;;40.25;14.68;;;;;;;;;;5074088;28;20041;-59
2022/01/12 06:12:40;;;;;;;43.38;14.48;;;2.70;99.90;;;;;;5074098;28;20143;-58
2022/01/12 06:15:06;;;;;;;43.88;13.88;;;;;;;;;;5073850;28;20487;-58
2022/01/12 06:17:32;;;;;;;42.92;14.15;;;3.00;99.90;;;;;;5073859;28;20058;-59
2022/01/12 06:19:58;;;;;;;47.38;15.20;;;2.70;99.90;;;;;;5074270;28;20538;-59
2022/01/12 06:22:24;;;;;;;47.47;15.68;;;2.80;99.90;;;;;;5056477;28;20044;-59
2022/01/12 06:24:54;;;;;;;40.78;14.30;;;;;;;;;;5074809;28;20148;-58
2022/01/12 06:27:22;;;;;;;47.38;16.95;;;;;;;;;;5074311;28;20044;-58
2022/01/12 06:30:03;;;;;;;43.15;15.32;;;2.90;99.90;;;;;;5057565;28;20064;-58
2022/01/12 06:32:30;;;;;;;46.17;17.27;;;3.00;99.90;;;;;;5074553;28;20040;-59
2022/01/12 06:34:56;;;;;;;47.70;16.70;;;2.90;99.90;;;;;;5073531;28;20051;-59
2022/01/12 06:37:22;;;;;;;88.68;20.98;;;;;;;;;;5079574;28;20142;-58
2022/01/12 06:39:47;;;;;;;79.30;22.10;;;2.90;99.90;;;;;;5092795;28;20044;-56
2022/01/12 06:42:14;;;;;;;72.97;18.90;;;;;;;;;;5075765;28;20042;-57
2022/01/12 06:44:39;;;;;;;119.70;24.88;;;2.90;99.90;;;;;;5089002;28;20383;-58
2022/01/12 06:47:06;;;;;;;87.97;21.13;;;2.90;99.90;;;;;;5084981;28;20056;-58
2022/01/12 06:49:32;;;;;;;134.85;23.52;;;;;;;;;;5082513;28;20041;-58
2022/01/12 06:52:00;;;;;;;107.05;22.25;;;3.00;99.90;;;;;;5071709;28;20055;-58
2022/01/12 06:54:26;;;;;;;138.88;25.15;;;;;;;;;;5092130;28;20051;-57
2022/01/12 06:56:52;;;;;;;126.00;27.15;;;2.90;99.90;;;;;;5091307;28;20039;-58
2022/01/12 06:59:17;;;;;;;71.82;18.52;;;2.80;99.90;;;;;;5093886;28;20490;-59
2022/01/12 07:01:44;;;;;;;116.13;21.70;;;2.80;99.90;;;;;;5093579;28;20499;-58
2022/01/12 07:04:10;;;;;;;149.40;26.77;;;;;;;;;;5093144;28;20036;-58
2022/01/12 07:06:36;;;;;;;97.22;20.00;;;;;;;;;;5075737;28;20039;-58
2022/01/12 07:09:03;;;;;;;94.45;18.00;;;;;;;;;;5093210;28;20040;-57
2022/01/12 07:11:29;;;;;;;151.32;28.73;;;;;;;;;;5093277;28;20039;-55
2022/01/12 07:13:54;;;;;;;82.03;16.15;;;2.90;99.90;;;;;;5093251;28;20044;-55
2022/01/12 07:16:20;;;;;;;86.85;19.48;;;;;;;;;;5093484;28;20028;-58
2022/01/12 07:18:46;;;;;;;92.30;20.20;;;2.60;99.90;;;;;;5092876;28;20044;-57
2022/01/12 07:21:12;;;;;;;86.47;18.23;;;2.80;99.90;;;;;;5093215;28;20032;-55
2022/01/12 07:23:37;;;;;;;109.70;20.98;;;2.70;99.90;;;;;;5092916;28;20399;-58
2022/01/12 07:26:09;;;;;;;77.32;18.77;;;;;;;;;;5093414;28;20040;-58
2022/01/12 07:28:35;;;;;;;69.88;17.95;;;2.30;99.90;;;;;;5074172;28;20082;-58
2022/01/12 07:31:01;;;;;;;83.30;21.48;;;2.20;99.90;;;;;;5091870;28;20063;-57
2022/01/12 07:33:27;;;;;;;104.65;22.73;;;;;;;;;;5090242;28;20040;-56
2022/01/12 07:35:53;;;;;;;114.97;26.38;;;2.30;99.90;;;;;;5087798;28;20085;-58
2022/01/12 07:38:19;;;;;;;93.35;20.85;;;;;;;;;;5072850;28;20093;-58
2022/01/12 07:40:45;;;;;;;92.32;15.10;;;;;;;;;;5091878;28;20118;-57
2022/01/12 07:43:11;;;;;;;107.90;20.10;;;;;;;;;;5091086;28;20471;-57
2022/01/12 07:45:38;;;;;;;113.03;20.65;;;1.90;99.90;;;;;;5091641;28;20066;-58
2022/01/12 07:48:04;;;;;;;79.03;15.48;;;1.60;99.90;;;;;;5092344;28;20083;-57
2022/01/12 07:50:30;;;;;;;73.60;15.68;;;1.60;99.90;;;;;;5091455;28;20075;-57
2022/01/12 07:52:56;;;;;;;38.65;11.60;;;;;;;;;;5074120;28;20525;-56
2022/01/12 07:55:22;;;;;;;55.17;13.32;;;;;;;;;;5091744;28;20495;-56
2022/01/12 07:57:52;;;;;;;48.33;12.88;;;;;;;;;;5091933;28;20036;-58
2022/01/12 08:00:20;;;;;;;52.38;12.88;;;;;;;;;;5091329;28;20032;-58
2022/01/12 08:02:46;;;;;;;60.53;15.75;;;;;;;;;;5091184;28;20039;-57
2022/01/12 08:05:11;;;;;;;47.30;14.05;;;1.50;99.90;;;;;;5090158;28;20036;-57
2022/01/12 08:07:39;;;;;;;59.28;16.83;;;1.40;99.90;;;;;;5090975;28;20036;-56
2022/01/12 08:10:06;;;;;;;45.58;10.90;;;1.40;99.90;;;;;;5089173;28;20107;-57
2022/01/12 08:12:32;;;;;;;32.13;10.15;;;1.30;99.90;;;;;;5090786;28;20036;-57
2022/01/12 08:14:58;;;;;;;33.13;10.32;;;1.40;99.90;;;;;;5091051;28;20157;-56
2022/01/12 08:17:25;;;;;;;35.83;11.48;;;;;;;;;;5090145;28;20540;-56
2022/01/12 08:19:54;;;;;;;46.75;13.52;;;;;;;;;;5090905;28;20040;-58
2022/01/12 08:22:20;;;;;;;31.73;11.25;;;;;;;;;;5091594;28;20089;-58
2022/01/12 08:24:46;;;;;;;34.10;10.65;;;;;;;;;;5091552;28;20117;-57
2022/01/12 08:27:12;;;;;;;51.88;14.30;;;;;;;;;;5091181;28;20072;-58
2022/01/12 08:29:38;;;;;;;44.13;14.50;;;1.20;99.90;;;;;;5092012;28;20035;-58
2022/01/12 08:32:04;;;;;;;42.38;13.50;;;;;;;;;;5090906;28;20119;-57
2022/01/12 08:34:30;;;;;;;50.92;13.60;;;1.00;99.90;;;;;;5091038;28;20092;-54
2022/01/12 08:36:56;;;;;;;41.85;11.90;;;;;;;;;;5091055;28;20043;-58
2022/01/12 08:39:22;;;;;;;44.33;10.85;;;1.50;99.90;;;;;;5090840;28;20110;-56
2022/01/12 08:41:48;;;;;;;28.55;9.27;;;;;;;;;;5090499;28;20093;-57
2022/01/12 08:44:14;;;;;;;35.55;10.05;;;1.60;99.90;;;;;;5090429;28;20530;-58
2022/01/12 08:46:41;;;;;;;47.90;11.10;;;;;;;;;;5090070;28;20137;-55
2022/01/12 08:49:07;;;;;;;39.72;9.90;;;1.80;99.90;;;;;;5091367;28;20044;-56
2022/01/12 08:51:33;;;;;;;33.42;10.95;;;;;;;;;;5091310;28;20048;-58
2022/01/12 08:53:59;;;;;;;31.95;9.65;;;;;;;;;;5091393;28;20047;-58
2022/01/12 08:56:26;;;;;;;26.23;8.68;;;;;;;;;;5090021;28;20090;-57
2022/01/12 08:58:52;;;;;;;25.02;8.73;;;;;;;;;;5088524;28;20039;-57
2022/01/12 09:01:18;;;;;;;35.00;11.50;;;;;;;;;;5090579;28;20445;-58
2022/01/12 09:03:44;;;;;;;36.03;11.38;;;;;;;;;;5091254;28;20067;-57
2022/01/12 09:06:10;;;;;;;31.00;10.68;;;;;;;;;;5090775;28;20068;-58
2022/01/12 09:08:41;;;;;;;38.88;12.10;;;;;;;;;;5091491;28;20052;-58
2022/01/12 09:11:08;;;;;;;27.55;11.75;;;2.10;99.90;;;;;;5089903;28;20036;-56
2022/01/12 09:13:34;;;;;;;24.50;11.27;;;;;;;;;;5072130;28;20040;-57
2022/01/12 09:16:06;;;;;;;28.17;11.88;;;2.30;99.90;;;;;;5090258;28;20028;-58
2022/01/12 09:18:32;;;;;;;29.92;10.43;;;;;;;;;;5092253;28;20036;-56
2022/01/12 09:20:58;;;;;;;31.25;11.65;;;;;;;;;;5095120;28;20375;-55
2022/01/12 09:23:24;;;;;;;27.95;12.68;;;2.40;99.90;;;;;;5094904;28;20047;-58
2022/01/12 09:25:50;;;;;;;23.50;10.25;;;;;;;;;;5094511;28;20054;-57
2022/01/12 09:28:17;;;;;;;28.85;11.10;;;;;;;;;;5093835;28;20036;-57
2022/01/12 09:30:43;;;;;;;29.98;11.40;;;2.70;99.90;;;;;;5094583;28;20053;-59
2022/01/12 09:33:09;;;;;;;27.73;11.57;;;;;;;;;;5094607;28;20039;-57
2022/01/12 09:35:34;;;;;;;29.40;11.50;;;2.80;99.90;;;;;;5093800;28;20036;-56
2022/01/12 09:38:00;;;;;;;29.75;12.40;;;;;;;;;;5093921;28;20024;-57
2022/01/12 09:40:27;;;;;;;30.35;12.30;;;;;;;;;;5094272;28;20040;-57
2022/01/12 09:42:53;;;;;;;32.97;13.00;;;;;;;;;;5094276;28;20502;-58
2022/01/12 09:45:19;;;;;;;30.05;13.88;;;3.20;99.90;;;;;;5094148;28;20173;-57
2022/01/12 09:47:49;;;;;;;25.90;11.35;;;3.10;99.90;;;;;;5094273;28;20557;-58
2022/01/12 09:50:17;;;;;;;25.15;11.30;;;3.20;99.90;;;;;;5076316;28;20039;-56
2022/01/12 09:52:43;;;;;;;29.40;11.75;;;3.40;99.90;;;;;;5093551;28;20510;-57
2022/01/12 09:55:10;;;;;;;30.52;11.05;;;;;;;;;;5093578;28;20281;-57
2022/01/12 09:57:36;;;;;;;26.67;11.32;;;;;;;;;;5075696;28;20044;-58
2022/01/12 10:00:04;;;;;;;32.72;12.88;;;3.40;99.90;;;;;;5093768;28;20082;-58
2022/01/12 10:02:30;;;;;;;30.02;11.18;;;3.80;99.90;;;;;;5094068;28;20405;-58
2022/01/12 10:05:00;;;;;;;32.75;11.40;;;;;;;;;;5093935;28;20044;-56
2022/01/12 10:07:26;;;;;;;25.23;11.40;;;;;;;;;;5093825;28;20044;-59
2022/01/12 10:09:56;;;;;;;24.08;10.57;;;;;;;;;;5093548;28;20058;-57
2022/01/12 10:12:22;;;;;;;25.98;9.70;;;3.80;99.90;;;;;;5093675;28;20039;-57
2022/01/12 10:14:52;;;;;;;26.27;10.25;;;4.30;99.90;;;;;;5093609;28;20394;-58
2022/01/12 10:17:19;;;;;;;23.58;10.63;;;3.80;99.90;;;;;;5093048;28;20024;-56
2022/01/12 10:19:45;;;;;;;28.33;10.77;;;;;;;;;;5093127;28;20036;-58
2022/01/12 10:22:14;;;;;;;22.75;10.68;;;3.80;99.90;;;;;;5093057;28;20040;-58
2022/01/12 10:24:41;;;;;;;21.10;8.40;;;;;;;;;;5091812;28;20051;-57
2022/01/12 10:27:26;;;;;;;19.60;8.63;;;;;;;;;;5087528;28;20036;-56
2022/01/12 10:29:57;;;;;;;19.60;7.72;;;3.50;99.90;;;;;;5092879;28;20082;-56
2022/01/12 10:32:24;;;;;;;18.40;7.82;;;;;;;;;;5092636;28;20115;-55
2022/01/12 10:34:50;;;;;;;26.38;8.45;;;;;;;;;;5092386;28;20119;-58
2022/01/12 10:37:27;;;;;;;14.55;7.85;;;3.50;99.90;;;;;;5093331;28;20043;-58
2022/01/12 10:39:54;;;;;;;22.98;9.02;;;3.90;99.90;;;;;;5090576;28;20059;-58
2022/01/12 10:42:25;;;;;;;18.02;7.47;;;;;;;;;;5092815;28;20036;-58
2022/01/12 10:44:56;;;;;;;22.33;8.85;;;4.40;99.90;;;;;;5074770;28;20126;-58
2022/01/12 10:47:27;;;;;;;20.02;8.13;;;4.10;99.90;;;;;;5092761;28;20087;-57
2022/01/12 10:49:52;;;;;;;18.88;8.85;;;4.20;99.90;;;;;;5091580;28;20040;-59
2022/01/12 10:52:18;;;;;;;21.67;9.02;;;4.20;99.90;;;;;;5093001;28;20044;-58
2022/01/12 10:54:49;;;;;;;26.25;8.18;;;;;;;;;;5092058;28;20032;-57
2022/01/12 10:57:15;;;;;;;24.55;9.85;;;;;;;;;;5072682;28;20082;-58
2022/01/12 10:59:41;;;;;;;22.15;8.45;;;4.40;99.90;;;;;;5079019;28;20036;-57
2022/01/12 11:02:07;;;;;;;21.13;8.90;;;4.60;99.90;;;;;;5092633;28;20039;-57
2022/01/12 11:04:33;;;;;;;24.73;9.85;;;4.70;99.90;;;;;;5059524;28;20040;-58
2022/01/12 11:06:59;;;;;;;19.85;8.45;;;4.80;99.90;;;;;;5041176;28;20044;-58
2022/01/12 11:09:26;;;;;;;22.63;8.70;;;4.60;99.90;;;;;;5074552;28;20044;-57
2022/01/12 11:11:53;;;;;;;26.40;10.15;;;;;;;;;;5092367;28;20040;-57
2022/01/12 11:14:19;;;;;;;27.92;9.90;;;;;;;;;;5092064;28;20310;-57
2022/01/12 11:16:44;;;;;;;27.40;9.80;;;4.90;99.90;;;;;;5092016;28;20035;-57
2022/01/12 11:19:11;;;;;;;27.77;10.43;;;5.10;99.90;;;;;;5073938;28;20550;-57
2022/01/12 11:21:41;;;;;;;22.70;10.27;;;;;;;;;;5093123;28;20115;-58
2022/01/12 11:24:10;;;;;;;24.40;9.30;;;;;;;;;;5092858;28;20036;-57
2022/01/12 11:26:36;;;;;;;22.98;9.20;;;5.30;99.90;;;;;;5092103;28;20040;-58
2022/01/12 11:29:04;;;;;;;29.42;11.18;;;;;;;;;;5092586;28;20566;-55
2022/01/12 11:31:32;;;;;;;21.52;8.70;;;;;;;;;;5075824;28;20039;-57
2022/01/12 11:33:58;;;;;;;23.33;9.40;;;5.50;99.90;;;;;;5092429;28;20079;-56
2022/01/12 11:36:28;;;;;;;24.75;8.38;;;;;;;;;;5087076;28;20078;-58
2022/01/12 11:39:10;;;;;;;29.55;9.18;;;5.40;99.90;;;;;;5071517;28;20474;-56
2022/01/12 11:41:42;;;;;;;21.75;8.25;;;5.70;99.90;;;;;;5074808;28;20122;-57
2022/01/12 11:44:15;;;;;;;25.27;9.13;;;6.00;99.90;;;;;;5067664;28;20528;-56
2022/01/12 11:46:59;;;;;;;26.17;8.57;;;5.80;99.90;;;;;;5076036;28;20048;-58
2022/01/12 11:49:37;;;;;;;28.30;8.45;;;5.20;99.90;;;;;;5092621;28;20032;-57
2022/01/12 11:52:26;;;;;;;25.83;9.77;;;6.00;99.90;;;;;;5073052;28;20040;-56
2022/01/12 11:54:54;;;;;;;32.83;10.40;;;;;;;;;;5073060;28;20032;-54
2022/01/12 11:57:35;;;;;;;26.02;8.05;;;6.50;99.90;;;;;;5075336;28;20148;-58
2022/01/12 12:00:12;;;;;;;26.27;9.52;;;;;;;;;;5090539;28;20075;-57
2022/01/12 12:02:39;;;;;;;40.05;8.70;;;6.40;99.90;;;;;;5091176;28;20083;-57
2022/01/12 12:05:09;;;;;;;28.27;8.40;;;;;;;;;;5088087;28;20035;-57
2022/01/12 12:07:44;;;;;;;25.50;8.20;;;;;;;;;;5091178;28;20047;-55
2022/01/12 12:10:12;;;;;;;21.98;8.18;;;6.40;99.90;;;;;;5070981;28;20058;-57
2022/01/12 12:12:38;;;;;;;27.08;7.85;;;6.50;99.90;;;;;;5091311;28;20128;-57
2022/01/12 12:15:07;;;;;;;20.58;7.07;;;6.70;99.90;;;;;;5091375;28;20115;-58
2022/01/12 12:17:35;;;;;;;26.98;7.85;;;6.60;99.90;;;;;;5091154;28;20467;-57
2022/01/12 12:20:03;;;;;;;22.85;8.88;;;;;;;;;;5090983;28;20042;-57
2022/01/12 12:22:30;;;;;;;25.92;8.23;;;;;;;;;;5073347;28;20048;-58
2022/01/12 12:24:58;;;;;;;24.38;8.18;;;7.40;99.90;;;;;;5091068;28;20119;-58
2022/01/12 12:27:26;;;;;;;17.70;7.75;;;7.40;99.90;;;;;;5072934;28;20035;-56
2022/01/12 12:29:53;;;;;;;19.38;7.13;;;7.40;99.90;;;;;;5090597;28;20036;-58
2022/01/12 12:32:20;;;;;;;23.45;7.25;;;7.50;99.90;;;;;;5090665;28;20081;-58
2022/01/12 12:34:47;;;;;;;26.75;7.45;;;7.80;99.90;;;;;;5091119;28;20157;-58
2022/01/12 12:37:17;;;;;;;23.88;7.28;;;7.60;99.90;;;;;;5090352;28;20094;-57
2022/01/12 12:39:45;;;;;;;23.75;7.25;;;7.70;99.90;;;;;;5073291;28;20109;-57
2022/01/12 12:42:19;;;;;;;19.13;8.15;;;8.10;99.90;;;;;;5072647;28;20040;-58
2022/01/12 12:44:46;;;;;;;20.35;6.55;;;;;;;;;;5090280;28;20031;-58
2022/01/12 12:47:18;;;;;;;15.15;6.15;;;7.90;99.90;;;;;;5060069;28;20533;-58
2022/01/12 12:49:50;;;;;;;30.67;8.18;;;8.00;99.90;;;;;;5073669;28;20036;-59
2022/01/12 12:52:39;;;;;;;24.10;7.13;;;8.50;99.90;;;;;;5090624;28;20051;-57
2022/01/12 12:55:14;;;;;;;17.48;5.53;;;7.90;99.90;;;;;;5091391;28;20032;-58
2022/01/12 12:57:54;;;;;;;16.50;5.25;;;8.40;99.90;;;;;;5091368;28;20047;-58
2022/01/12 13:00:25;;;;;;;18.23;6.03;;;8.50;99.90;;;;;;5091328;28;20036;-58
2022/01/12 13:02:53;;;;;;;21.38;5.80;;;8.40;99.90;;;;;;5091832;28;20115;-58
2022/01/12 13:05:25;;;;;;;18.35;5.88;;;9.90;99.90;;;;;;5091516;28;20052;-58
2022/01/12 13:07:51;;;;;;;20.60;4.82;;;9.80;99.90;;;;;;5073315;28;20055;-58
2022/01/12 13:10:19;;;;;;;12.02;4.10;;;9.90;99.90;;;;;;5090457;28;20514;-58
2022/01/12 13:12:54;;;;;;;17.83;4.85;;;10.30;99.90;;;;;;5090999;28;20036;-56
2022/01/12 13:15:34;;;;;;;15.10;4.57;;;10.00;99.90;;;;;;5088561;28;20087;-57
2022/01/12 13:18:03;;;;;;;14.55;4.50;;;9.60;99.90;;;;;;5073586;28;20032;-57
2022/01/12 13:23:26;;;;;;;14.68;4.78;;;10.00;99.90;;;;;;5086352;28;20406;-58
2022/01/12 13:25:57;;;;;;;18.02;5.18;;;9.70;99.90;;;;;;5089488;28;20040;-59
2022/01/12 13:28:24;;;;;;;16.67;5.75;;;9.60;97.70;;;;;;5091303;28;20032;-58
2022/01/12 13:30:55;;;;;;;16.65;4.72;;;10.40;99.90;;;;;;5090204;28;20040;-58
2022/01/12 13:33:31;;;;;;;17.65;4.15;;;10.20;96.20;;;;;;5091385;28;20036;-59
2022/01/12 13:35:58;;;;;;;14.80;3.85;;;10.20;93.40;;;;;;5090071;28;20040;-59
2022/01/12 13:38:31;;;;;;;15.13;4.30;;;10.10;93.70;;;;;;5089938;28;20037;-58
2022/01/12 13:41:09;;;;;;;15.65;3.45;;;10.60;93.00;;;;;;5089452;28;20043;-57
2022/01/12 13:43:37;;;;;;;20.60;5.57;;;12.00;80.60;;;;;;5085947;28;20055;-57
2022/01/12 13:46:11;;;;;;;14.02;3.70;;;11.10;85.40;;;;;;5091204;28;20047;-57
2022/01/12 13:48:37;;;;;;;;;;;10.80;79.40;;;;;;5091919;28;20170;-57
2022/01/12 13:51:03;;;;;;;13.68;3.63;;;10.40;80.30;;;;;;5091951;28;19978;-58
2022/01/12 13:53:37;;;;;;;14.15;4.15;;;10.60;79.90;;;;;;5091846;28;20040;-58
2022/01/12 13:56:05;;;;;;;11.52;3.65;;;11.30;77.10;;;;;;5091262;28;20079;-58
2022/01/12 13:58:32;;;;;;;13.88;3.30;;;11.60;73.70;;;;;;5091277;28;20032;-58
2022/01/12 14:01:11;;;;;;;12.98;3.53;;;12.10;76.50;;;;;;5091565;28;20068;-59
2022/01/12 14:03:53;;;;;;;12.85;4.05;;;12.00;71.60;;;;;;5091441;28;20048;-58
2022/01/12 14:06:26;;;;;;;14.48;3.38;;;11.10;70.70;;;;;;5094096;28;20065;-58
2022/01/12 14:08:57;;;;;;;14.52;4.57;;;10.50;73.90;;;;;;5093429;28;20048;-57
2022/01/12 14:11:35;;;;;;;18.27;3.58;;;10.90;76.50;;;;;;5094127;28;20036;-59
2022/01/12 14:14:02;;;;;;;17.58;3.80;;;10.60;76.20;;;;;;5073695;28;20510;-59
2022/01/12 14:16:32;;;;;;;12.68;4.68;;;10.40;81.50;;;;;;5094643;28;20071;-59
2022/01/12 14:19:01;;;;;;;16.00;4.07;;;9.90;78.90;;;;;;5094464;28;20035;-57
2022/01/12 14:21:27;;;;;;;12.10;3.58;;;10.40;79.80;;;;;;5094475;28;20048;-58
2022/01/12 14:23:56;;;;;;;16.77;3.70;;;10.10;81.40;;;;;;5094452;28;20036;-57
2022/01/12 14:26:30;;;;;;;18.63;4.53;;;10.40;82.00;;;;;;5075194;28;20054;-57
2022/01/12 14:28:57;;;;;;;16.17;4.03;;;9.50;82.50;;;;;;5073959;28;20036;-58
2022/01/12 14:31:23;;;;;;;14.02;3.38;;;9.90;85.40;;;;;;5094102;28;20028;-58
2022/01/12 14:33:50;;;;;;;13.63;4.47;;;9.60;84.50;;;;;;5094442;28;20058;-58
2022/01/12 14:36:17;;;;;;;14.80;3.60;;;9.40;84.60;;;;;;5075966;28;20039;-57
2022/01/12 14:38:43;;;;;;;17.08;4.72;;;9.70;85.50;;;;;;5094419;28;20040;-57
2022/01/12 14:41:09;;;;;;;17.45;3.97;;;10.00;86.70;;;;;;5094495;28;20114;-57